Time;durP1;ratioP1;P1;durP2;ratioP2;P2;SDS_P1;SDS_P2;PMS_P1;PMS_P2;Temp;Humidity;BMP_temperature;BMP_pressure;BME280_temperature;BME280_humidity;BME280_pressure;Samples;Min_cycle;Max_cycle;Signal;HPM_P1;HPM_P2
2022/01/29 00:02:22;;;;;;;3.40;1.73;;;22.40;43.70;;;;;;5076083;27;90954;-66
2022/01/29 00:04:50;;;;;;;1.87;1.50;;;22.30;43.60;;;;;;5061723;27;88699;-66
2022/01/29 00:07:18;;;;;;;4.30;1.83;;;22.30;43.70;;;;;;5064621;27;88425;-66
2022/01/29 00:09:47;;;;;;;6.37;1.20;;;22.30;43.80;;;;;;5081837;27;89768;-66
2022/01/29 00:12:16;;;;;;;5.07;1.57;;;22.20;43.80;;;;;;5091427;27;89905;-66
2022/01/29 00:14:45;;;;;;;3.70;1.43;;;22.20;43.90;;;;;;5064145;27;89178;-66
2022/01/29 00:17:13;;;;;;;4.57;1.57;;;22.10;43.80;;;;;;5071596;27;88623;-66
2022/01/29 00:19:41;;;;;;;1.93;1.37;;;22.10;43.90;;;;;;5079767;27;88488;-66
2022/01/29 00:22:10;;;;;;;2.60;1.30;;;22.00;43.90;;;;;;5081269;27;89411;-66
2022/01/29 00:24:38;;;;;;;3.40;1.73;;;22.00;44.00;;;;;;5081501;27;90049;-66
2022/01/29 00:27:09;;;;;;;2.67;1.40;;;22.00;44.10;;;;;;5080455;27;88766;-66
2022/01/29 00:29:38;;;;;;;2.03;1.67;;;21.90;44.10;;;;;;5068247;27;88586;-66
2022/01/29 00:32:08;;;;;;;3.83;1.77;;;21.80;44.00;;;;;;5082444;27;89503;-66
2022/01/29 00:34:36;;;;;;;4.97;1.80;;;21.80;44.00;;;;;;5080563;27;90178;-66
2022/01/29 00:37:05;;;;;;;4.47;1.93;;;21.70;44.10;;;;;;5081137;27;88958;-66
2022/01/29 00:39:33;;;;;;;5.10;1.77;;;21.70;44.10;;;;;;5080966;27;88379;-66
2022/01/29 00:42:01;;;;;;;4.40;1.70;;;21.70;44.10;;;;;;5063223;27;92540;-66
2022/01/29 00:44:45;;;;;;;4.10;1.83;;;21.60;44.00;;;;;;5060957;27;90298;-66
2022/01/29 00:47:14;;;;;;;2.60;1.47;;;21.60;44.10;;;;;;5060607;27;88922;-66
2022/01/29 00:49:43;;;;;;;7.30;2.13;;;21.60;44.10;;;;;;5070843;27;88442;-66
2022/01/29 00:52:11;;;;;;;4.73;1.80;;;21.60;44.10;;;;;;5081671;27;88996;-66
2022/01/29 00:54:38;;;;;;;2.37;1.30;;;21.60;44.20;;;;;;5081594;27;92181;-66
2022/01/29 00:57:07;;;;;;;3.53;1.60;;;21.50;44.10;;;;;;5081085;27;88522;-66
2022/01/29 00:59:35;;;;;;;4.90;1.80;;;21.50;44.20;;;;;;5081032;27;88769;-66
2022/01/29 01:02:03;;;;;;;4.37;1.53;;;21.50;44.20;;;;;;5074981;27;90578;-66
2022/01/29 01:04:36;;;;;;;3.60;1.50;;;21.40;44.10;;;;;;5079835;27;89041;-66
2022/01/29 01:07:04;;;;;;;3.43;1.70;;;21.40;44.20;;;;;;5079514;27;89016;-66
2022/01/29 01:09:32;;;;;;;1.60;1.10;;;21.40;44.20;;;;;;5080983;27;88418;-66
2022/01/29 01:12:00;;;;;;;3.90;1.43;;;21.40;44.20;;;;;;5080381;27;91284;-66
2022/01/29 01:14:32;;;;;;;1.50;1.30;;;21.40;44.20;;;;;;5079649;27;89530;-66
2022/01/29 01:17:00;;;;;;;3.47;1.63;;;21.40;44.20;;;;;;5079527;27;88455;-66
2022/01/29 01:19:28;;;;;;;2.47;1.60;;;21.30;44.10;;;;;;5061480;27;88450;-66
2022/01/29 01:21:59;;;;;;;1.90;1.70;;;21.30;44.10;;;;;;5075808;27;90634;-66
2022/01/29 01:24:27;;;;;;;2.40;1.23;;;21.30;44.20;;;;;;5082707;27;90009;-65
2022/01/29 01:26:55;;;;;;;3.70;1.90;;;21.30;44.20;;;;;;5079704;27;88338;-67
2022/01/29 01:29:23;;;;;;;3.90;1.47;;;21.30;44.20;;;;;;5079910;27;88621;-66
2022/01/29 01:31:51;;;;;;;2.13;1.53;;;21.30;44.20;;;;;;5080197;27;90795;-66
2022/01/29 01:34:22;;;;;;;2.83;1.50;;;21.20;44.10;;;;;;5080250;27;89969;-66
2022/01/29 01:36:55;;;;;;;2.53;1.30;;;21.20;44.80;;;;;;5079962;27;88329;-66
2022/01/29 01:39:29;;;;;;;1.53;1.03;;;21.30;44.30;;;;;;5079505;27;88703;-66
2022/01/29 01:42:03;;;;;;;1.27;1.03;;;21.20;44.20;;;;;;5080964;27;89522;-65
2022/01/29 01:44:34;;;;;;;2.47;1.43;;;21.20;44.20;;;;;;5080977;27;88807;-66
2022/01/29 01:47:03;;;;;;;4.97;1.63;;;21.20;44.20;;;;;;5068431;27;88367;-66
2022/01/29 01:49:31;;;;;;;5.97;2.00;;;21.20;44.20;;;;;;5080759;27;88507;-65
2022/01/29 01:51:59;;;;;;;1.80;1.10;;;21.20;44.30;;;;;;5079854;27;90687;-65
2022/01/29 01:54:28;;;;;;;3.93;1.93;;;21.20;44.20;;;;;;5062324;27;89117;-66
2022/01/29 01:56:56;;;;;;;3.03;1.50;;;21.20;44.90;;;;;;5071837;27;88992;-65
2022/01/29 01:59:24;;;;;;;1.23;1.13;;;21.20;44.30;;;;;;5081198;27;88427;-66
2022/01/29 02:01:52;;;;;;;2.93;1.40;;;21.10;44.20;;;;;;5072332;27;89624;-66
2022/01/29 02:04:20;;;;;;;5.03;1.63;;;21.10;44.30;;;;;;5060310;27;91784;-66
2022/01/29 02:06:48;;;;;;;2.70;1.50;;;21.10;44.30;;;;;;5071132;27;89161;-66
2022/01/29 02:09:17;;;;;;;1.80;1.50;;;21.10;44.30;;;;;;5077212;27;88750;-65
2022/01/29 02:11:51;;;;;;;1.63;1.53;;;21.10;44.30;;;;;;5080496;27;88946;-65
2022/01/29 02:14:20;;;;;;;2.63;1.33;;;21.00;44.20;;;;;;5086482;27;89064;-66
2022/01/29 02:16:48;;;;;;;2.67;1.90;;;21.00;44.20;;;;;;5080225;27;89758;-66
2022/01/29 02:19:16;;;;;;;2.53;1.30;;;21.00;44.30;;;;;;5078412;27;89420;-66
2022/01/29 02:21:45;;;;;;;2.97;1.30;;;21.00;44.20;;;;;;5079806;27;88512;-66
2022/01/29 02:24:13;;;;;;;2.40;1.60;;;21.00;44.30;;;;;;5079961;27;89099;-66
2022/01/29 02:26:41;;;;;;;2.57;1.73;;;21.00;44.30;;;;;;5082878;27;88329;-67
2022/01/29 02:29:09;;;;;;;3.17;1.70;;;20.90;44.30;;;;;;5082996;27;88633;-66
2022/01/29 02:31:48;;;;;;;3.13;1.30;;;20.90;44.30;;;;;;5083097;27;89493;-66
2022/01/29 02:34:16;;;;;;;2.53;1.20;;;20.90;44.30;;;;;;5083745;27;89656;-66
2022/01/29 02:36:46;;;;;;;1.47;1.20;;;20.90;44.30;;;;;;5083572;27;89173;-67
2022/01/29 02:39:16;;;;;;;2.73;1.43;;;20.90;44.30;;;;;;5083188;27;88712;-67
2022/01/29 02:41:45;;;;;;;3.07;1.80;;;20.90;44.30;;;;;;5083400;27;89658;-66
2022/01/29 02:44:16;;;;;;;2.90;2.00;;;20.90;44.30;;;;;;5082628;27;89035;-66
2022/01/29 02:46:54;;;;;;;1.77;1.17;;;20.80;44.20;;;;;;5086538;27;88635;-66
2022/01/29 02:49:23;;;;;;;3.50;1.20;;;20.90;44.40;;;;;;5081995;27;88429;-65
2022/01/29 02:51:53;;;;;;;2.37;1.07;;;20.90;44.40;;;;;;5082628;27;89696;-65
2022/01/29 02:54:21;;;;;;;1.63;1.30;;;20.80;44.30;;;;;;5082461;27;89027;-66
2022/01/29 02:56:48;;;;;;;1.80;1.57;;;20.80;44.30;;;;;;5076166;27;89030;-66
2022/01/29 02:59:17;;;;;;;3.03;1.57;;;20.90;44.40;;;;;;5080626;27;88658;-65
2022/01/29 03:01:45;;;;;;;2.67;1.50;;;20.80;44.30;;;;;;5084202;27;88272;-66
2022/01/29 03:04:13;;;;;;;2.77;1.20;;;20.80;44.30;;;;;;5083329;27;88462;-66
2022/01/29 03:06:41;;;;;;;1.90;1.40;;;20.80;44.30;;;;;;5082852;27;88855;-66
2022/01/29 03:09:10;;;;;;;3.67;1.20;;;20.80;44.40;;;;;;5082547;27;88696;-65
2022/01/29 03:11:38;;;;;;;2.00;1.40;;;20.80;44.30;;;;;;5081875;27;89571;-65
2022/01/29 03:14:06;;;;;;;1.43;1.27;;;20.80;44.30;;;;;;5081558;27;89247;-65
2022/01/29 03:16:34;;;;;;;3.37;1.70;;;20.80;44.40;;;;;;5080659;27;88520;-65
2022/01/29 03:19:02;;;;;;;1.70;1.30;;;20.70;44.30;;;;;;5070578;27;88668;-66
2022/01/29 03:21:30;;;;;;;2.67;1.50;;;20.70;44.30;;;;;;5082705;27;88546;-65
2022/01/29 03:23:58;;;;;;;1.40;1.20;;;20.70;44.40;;;;;;5067190;27;89371;-66
2022/01/29 03:26:27;;;;;;;1.63;1.40;;;20.70;44.40;;;;;;5068685;27;90119;-66
2022/01/29 03:28:55;;;;;;;2.07;1.10;;;20.70;44.40;;;;;;5081603;27;89651;-65
2022/01/29 03:31:26;;;;;;;1.23;0.80;;;20.70;44.40;;;;;;5082508;27;90693;-66
2022/01/29 03:33:54;;;;;;;1.90;1.30;;;20.60;44.30;;;;;;5076403;27;89119;-66
2022/01/29 03:36:23;;;;;;;1.97;1.00;;;20.60;44.30;;;;;;5076021;27;89811;-66
2022/01/29 03:38:51;;;;;;;2.40;1.40;;;20.60;44.40;;;;;;5081801;27;88544;-65
2022/01/29 03:41:19;;;;;;;2.37;1.10;;;20.60;44.40;;;;;;5082014;27;89676;-65
2022/01/29 03:43:51;;;;;;;1.93;1.10;;;20.60;44.40;;;;;;5082510;27;89050;-66
2022/01/29 03:46:19;;;;;;;1.87;1.20;;;20.60;45.10;;;;;;5081254;27;88322;-66
2022/01/29 03:48:47;;;;;;;4.57;1.37;;;20.60;44.40;;;;;;5081983;27;88571;-66
2022/01/29 03:51:15;;;;;;;1.63;1.30;;;20.60;44.40;;;;;;5082473;27;89610;-66
2022/01/29 03:53:44;;;;;;;2.07;1.40;;;20.60;44.40;;;;;;5068951;27;88868;-65
2022/01/29 03:56:12;;;;;;;1.33;1.17;;;20.60;44.40;;;;;;5072804;27;88840;-65
2022/01/29 03:58:40;;;;;;;1.17;0.97;;;20.60;44.40;;;;;;5082492;27;88580;-65
2022/01/29 04:01:09;;;;;;;2.07;1.27;;;20.60;44.40;;;;;;5066925;27;93719;-65
2022/01/29 04:03:37;;;;;;;2.33;1.37;;;20.60;44.40;;;;;;5061934;27;90030;-66
2022/01/29 04:06:05;;;;;;;3.93;1.40;;;20.60;44.40;;;;;;5067326;27;88594;-66
2022/01/29 04:08:40;;;;;;;1.43;1.13;;;20.60;44.40;;;;;;5082671;27;88476;-66
2022/01/29 04:11:08;;;;;;;3.03;1.10;;;20.50;44.40;;;;;;5080283;27;89775;-66
2022/01/29 04:13:38;;;;;;;3.03;1.00;;;20.50;44.40;;;;;;5082052;27;89610;-66
2022/01/29 04:16:06;;;;;;;1.17;0.83;;;20.50;44.40;;;;;;5081694;27;88436;-65
2022/01/29 04:18:35;;;;;;;2.83;1.23;;;20.50;44.50;;;;;;5082771;27;88547;-66
2022/01/29 04:21:04;;;;;;;1.83;1.23;;;20.50;44.50;;;;;;5081681;27;89892;-66
2022/01/29 04:23:31;;;;;;;0.93;0.73;;;20.50;44.50;;;;;;5088733;27;89030;-66
2022/01/29 04:26:00;;;;;;;2.27;1.17;;;20.50;44.50;;;;;;5080652;27;88712;-66
2022/01/29 04:28:31;;;;;;;2.80;1.17;;;20.50;44.50;;;;;;5081613;27;88925;-66
2022/01/29 04:31:03;;;;;;;1.67;1.13;;;20.50;44.50;;;;;;5081673;27;89409;-66
2022/01/29 04:33:31;;;;;;;2.73;1.47;;;20.40;44.40;;;;;;5081460;27;90176;-66
2022/01/29 04:36:01;;;;;;;1.37;0.97;;;20.40;44.40;;;;;;5080172;27;89827;-65
2022/01/29 04:38:29;;;;;;;1.87;0.97;;;20.40;44.40;;;;;;5081619;27;88437;-65
2022/01/29 04:41:00;;;;;;;0.70;0.70;;;20.40;44.50;;;;;;5080483;27;89379;-65
2022/01/29 04:43:28;;;;;;;1.37;0.73;;;20.40;44.50;;;;;;5061178;27;89565;-65
2022/01/29 04:45:56;;;;;;;3.47;1.03;;;20.40;44.50;;;;;;5069868;27;88802;-65
2022/01/29 04:48:24;;;;;;;1.77;1.30;;;20.40;44.60;;;;;;5081048;27;88179;-66
2022/01/29 04:50:53;;;;;;;3.80;1.17;;;20.40;44.60;;;;;;5081356;27;92975;-66
2022/01/29 04:53:22;;;;;;;1.83;0.90;;;20.40;44.60;;;;;;5080881;27;90007;-65
2022/01/29 04:55:50;;;;;;;1.33;1.13;;;20.40;44.60;;;;;;5091346;27;88652;-65
2022/01/29 04:58:18;;;;;;;1.83;1.30;;;20.40;44.60;;;;;;5080839;27;88456;-65
2022/01/29 05:00:46;;;;;;;2.67;1.00;;;20.40;44.60;;;;;;5090095;27;90605;-65
2022/01/29 05:03:15;;;;;;;0.80;0.67;;;20.40;44.60;;;;;;5081253;27;88937;-66
2022/01/29 05:05:43;;;;;;;1.73;0.70;;;20.40;44.60;;;;;;5080830;27;88682;-66
2022/01/29 05:08:12;;;;;;;0.90;0.70;;;20.40;44.60;;;;;;5078704;27;88569;-65
2022/01/29 05:10:42;;;;;;;1.67;0.97;;;20.40;44.60;;;;;;5080449;27;90563;-65
2022/01/29 05:13:12;;;;;;;0.90;0.70;;;20.30;44.50;;;;;;5080615;27;89938;-65
2022/01/29 05:15:44;;;;;;;2.73;1.07;;;20.40;44.60;;;;;;5080044;27;88840;-65
2022/01/29 05:29:16;;;;;;;3.57;1.10;;;20.30;44.60;;;;;;5074645;27;88430;-65
2022/01/29 05:31:44;;;;;;;1.17;1.00;;;20.30;44.60;;;;;;5077551;27;90621;-65
2022/01/29 05:34:12;;;;;;;1.77;0.80;;;20.20;44.60;;;;;;5063440;27;88423;-66
2022/01/29 05:36:39;;;;;;;0.80;0.80;;;20.20;44.60;;;;;;5072210;27;88335;-66
2022/01/29 05:39:07;;;;;;;1.60;0.70;;;20.20;44.60;;;;;;5080107;27;88611;-66
2022/01/29 05:41:37;;;;;;;2.77;1.17;;;20.20;44.70;;;;;;5080770;27;89537;-66
2022/01/29 05:44:05;;;;;;;1.00;0.80;;;20.20;44.70;;;;;;5067576;27;89026;-66
2022/01/29 05:46:33;;;;;;;1.63;0.93;;;20.20;44.70;;;;;;5060003;27;88522;-65
2022/01/29 05:49:01;;;;;;;0.83;0.70;;;20.20;45.30;;;;;;5073911;27;88325;-65
2022/01/29 05:51:30;;;;;;;1.03;0.83;;;20.20;44.70;;;;;;5079497;27;91900;-64
2022/01/29 05:53:58;;;;;;;0.67;0.53;;;20.20;44.70;;;;;;5063581;27;88814;-66
2022/01/29 05:56:26;;;;;;;1.00;0.80;;;20.20;45.50;;;;;;5063422;27;89543;-66
2022/01/29 05:58:55;;;;;;;2.63;1.00;;;20.20;44.90;;;;;;5077209;27;89275;-66
2022/01/29 06:01:23;;;;;;;1.30;0.87;;;20.20;45.00;;;;;;5074435;27;90572;-65
2022/01/29 06:03:51;;;;;;;2.23;0.90;;;20.30;45.10;;;;;;5079456;27;89593;-66
2022/01/29 06:06:20;;;;;;;1.33;0.77;;;20.30;45.10;;;;;;5079148;27;88683;-66
2022/01/29 06:08:48;;;;;;;2.77;1.17;;;20.30;45.20;;;;;;5080054;27;88432;-65
2022/01/29 06:11:16;;;;;;;1.03;0.93;;;20.30;45.10;;;;;;5076656;27;88598;-66
2022/01/29 06:13:44;;;;;;;5.93;1.10;;;20.30;45.20;;;;;;5076259;27;90128;-65
2022/01/29 06:16:13;;;;;;;2.13;0.90;;;20.30;45.30;;;;;;5062768;27;89793;-66
2022/01/29 06:18:41;;;;;;;1.70;0.90;;;20.20;45.30;;;;;;5060224;27;88450;-65
2022/01/29 06:21:12;;;;;;;2.20;0.73;;;20.20;45.30;;;;;;5059034;27;91829;-65
2022/01/29 06:23:40;;;;;;;0.73;0.67;;;20.20;45.30;;;;;;5079021;27;89339;-65
2022/01/29 06:26:10;;;;;;;1.27;0.77;;;20.20;45.40;;;;;;5079529;27;88232;-66
2022/01/29 06:28:38;;;;;;;2.43;0.83;;;20.20;45.50;;;;;;5078736;27;88451;-65
2022/01/29 06:31:06;;;;;;;4.37;0.90;;;20.20;45.50;;;;;;5079219;27;89518;-65
2022/01/29 06:33:35;;;;;;;1.30;0.90;;;20.20;46.10;;;;;;5078699;27;90331;-66
2022/01/29 06:36:04;;;;;;;2.37;0.70;;;20.20;45.60;;;;;;5079647;27;88549;-65
2022/01/29 06:38:32;;;;;;;0.90;0.80;;;20.20;45.60;;;;;;5079563;27;88459;-66
2022/01/29 06:41:00;;;;;;;2.80;0.60;;;20.20;45.60;;;;;;5078120;27;89539;-65
2022/01/29 06:43:28;;;;;;;1.97;0.70;;;20.10;45.50;;;;;;5066607;27;89401;-66
2022/01/29 06:45:56;;;;;;;1.50;0.50;;;20.10;45.50;;;;;;5059661;27;88511;-66
2022/01/29 06:48:25;;;;;;;1.03;0.90;;;20.10;45.60;;;;;;5080644;27;88669;-65
2022/01/29 06:50:54;;;;;;;3.63;0.77;;;20.10;45.60;;;;;;5077364;27;90910;-65
2022/01/29 06:53:22;;;;;;;1.83;0.77;;;20.10;45.70;;;;;;5078809;27;89180;-65
2022/01/29 06:55:50;;;;;;;1.37;0.83;;;20.10;45.60;;;;;;5079594;27;89844;-65
2022/01/29 06:58:18;;;;;;;1.00;0.90;;;20.10;45.70;;;;;;5080173;27;88420;-65
2022/01/29 07:01:06;;;;;;;1.70;1.03;;;20.10;45.70;;;;;;5079141;27;89420;-65
2022/01/29 07:03:34;;;;;;;1.87;0.80;;;20.20;45.80;;;;;;5079121;27;90620;-65
2022/01/29 07:06:04;;;;;;;1.00;0.83;;;20.00;45.70;;;;;;5080268;27;88254;-65
2022/01/29 07:08:34;;;;;;;0.93;0.87;;;20.00;45.70;;;;;;5066854;27;88525;-65
2022/01/29 07:11:02;;;;;;;2.63;0.70;;;20.00;45.70;;;;;;5075728;27;91072;-65
2022/01/29 07:13:31;;;;;;;1.90;0.97;;;20.00;45.70;;;;;;5082221;27;90108;-65
2022/01/29 07:15:59;;;;;;;0.60;0.60;;;20.00;45.70;;;;;;5083080;27;88836;-65
2022/01/29 07:18:27;;;;;;;2.00;0.70;;;20.00;45.80;;;;;;5082508;27;88149;-65
2022/01/29 07:20:55;;;;;;;0.77;0.77;;;20.00;45.70;;;;;;5082338;27;89671;-65
2022/01/29 07:23:24;;;;;;;2.97;0.70;;;20.00;45.70;;;;;;5082310;27;90095;-65
2022/01/29 07:25:52;;;;;;;0.93;0.60;;;20.00;45.80;;;;;;5083744;27;88937;-65
2022/01/29 07:28:20;;;;;;;2.80;1.20;;;20.10;45.80;;;;;;5083202;27;88500;-65
2022/01/29 07:30:48;;;;;;;1.30;0.70;;;20.00;45.80;;;;;;5082389;27;94254;-65
2022/01/29 07:33:16;;;;;;;2.20;0.80;;;20.00;45.80;;;;;;5082152;27;90277;-65
2022/01/29 07:35:44;;;;;;;1.10;0.83;;;20.00;45.80;;;;;;5081318;27;88845;-65
2022/01/29 07:38:13;;;;;;;1.60;0.70;;;20.00;45.80;;;;;;5081196;27;89214;-65
2022/01/29 07:40:43;;;;;;;1.20;0.80;;;20.00;45.80;;;;;;5082423;27;93432;-65
2022/01/29 07:43:11;;;;;;;2.53;1.00;;;20.00;45.80;;;;;;5081187;27;88986;-65
2022/01/29 07:45:39;;;;;;;1.73;0.60;;;20.00;45.80;;;;;;5082004;27;89726;-66
2022/01/29 07:48:07;;;;;;;1.40;0.60;;;20.00;45.90;;;;;;5082377;27;88578;-65
2022/01/29 07:50:35;;;;;;;1.93;0.90;;;20.00;45.90;;;;;;5064259;27;92251;-66
2022/01/29 07:53:02;;;;;;;1.67;0.77;;;20.00;45.90;;;;;;5078916;27;90072;-66
2022/01/29 07:55:31;;;;;;;0.80;0.60;;;20.00;46.60;;;;;;5082810;27;88345;-66
2022/01/29 07:58:01;;;;;;;1.00;0.90;;;20.00;45.90;;;;;;5082120;27;88655;-65
2022/01/29 08:00:35;;;;;;;0.93;0.70;;;20.00;45.90;;;;;;5071528;27;90705;-65
2022/01/29 08:03:03;;;;;;;1.87;1.00;;;19.90;45.80;;;;;;5081015;27;88928;-63
2022/01/29 08:05:33;;;;;;;0.53;0.50;;;19.90;45.90;;;;;;5081941;27;88652;-65
2022/01/29 08:08:01;;;;;;;0.83;0.70;;;19.90;45.90;;;;;;5080826;27;88853;-65
2022/01/29 08:10:29;;;;;;;1.90;1.10;;;19.90;45.90;;;;;;5076700;27;90832;-65
2022/01/29 08:12:57;;;;;;;1.50;0.90;;;19.90;45.90;;;;;;5079069;27;90244;-65
2022/01/29 08:15:26;;;;;;;2.57;0.87;;;19.90;45.90;;;;;;5068671;27;89324;-65
2022/01/29 08:17:54;;;;;;;0.93;0.70;;;19.90;45.90;;;;;;5081793;27;88622;-65
2022/01/29 08:20:22;;;;;;;1.00;0.80;;;19.90;46.00;;;;;;5081207;27;89570;-65
2022/01/29 08:22:50;;;;;;;2.40;0.80;;;19.90;45.90;;;;;;5081250;27;89376;-65
2022/01/29 08:25:18;;;;;;;2.70;1.03;;;19.90;45.90;;;;;;5082029;27;88279;-65
2022/01/29 08:27:46;;;;;;;0.80;0.60;;;19.90;45.90;;;;;;5075119;27;88378;-65
2022/01/29 08:30:14;;;;;;;2.47;0.90;;;19.90;45.90;;;;;;5079223;27;89573;-65
2022/01/29 08:32:44;;;;;;;0.90;0.80;;;19.90;45.90;;;;;;5061596;27;89107;-65
2022/01/29 08:35:14;;;;;;;1.30;0.70;;;19.90;46.00;;;;;;5072411;27;88496;-65
2022/01/29 08:37:42;;;;;;;3.53;0.90;;;19.90;46.00;;;;;;5079236;27;89303;-65
2022/01/29 08:40:13;;;;;;;1.10;0.60;;;19.90;46.00;;;;;;5081101;27;92647;-65
2022/01/29 08:42:41;;;;;;;1.70;0.80;;;19.90;46.00;;;;;;5080921;27;90012;-65
2022/01/29 08:45:10;;;;;;;5.40;1.00;;;19.90;46.70;;;;;;5075452;27;88402;-65
2022/01/29 08:47:39;;;;;;;1.40;0.77;;;19.90;46.30;;;;;;5067790;27;88401;-65
2022/01/29 08:50:09;;;;;;;4.10;0.80;;;19.90;46.30;;;;;;5102745;27;90106;-66
2022/01/29 08:52:37;;;;;;;2.73;0.80;;;19.90;46.50;;;;;;5075751;27;89033;-66
2022/01/29 08:55:06;;;;;;;3.63;1.00;;;19.90;46.50;;;;;;5064623;27;88833;-67
2022/01/29 08:57:34;;;;;;;2.10;0.80;;;19.90;46.60;;;;;;5076909;27;89174;-66
2022/01/29 09:00:03;;;;;;;2.87;0.73;;;19.90;46.70;;;;;;5079694;27;90706;-67
2022/01/29 09:02:31;;;;;;;2.07;0.67;;;19.90;46.70;;;;;;5080032;27;90096;-68
2022/01/29 09:04:59;;;;;;;5.07;1.13;;;19.90;46.80;;;;;;5080093;27;88997;-68
2022/01/29 09:07:29;;;;;;;2.97;1.00;;;19.90;46.80;;;;;;5080528;27;89064;-67
2022/01/29 09:09:57;;;;;;;1.47;0.93;;;19.90;46.90;;;;;;5069551;27;93886;-67
2022/01/29 09:12:25;;;;;;;1.23;0.73;;;19.90;46.90;;;;;;5093659;27;90253;-67
2022/01/29 09:14:53;;;;;;;7.40;0.87;;;19.90;46.90;;;;;;5081157;27;88522;-67
2022/01/29 09:17:21;;;;;;;3.77;1.00;;;19.90;46.90;;;;;;5077827;27;88487;-68
2022/01/29 09:19:49;;;;;;;6.23;1.23;;;19.90;46.90;;;;;;5079897;27;89447;-67
2022/01/29 09:22:17;;;;;;;2.10;0.73;;;19.90;46.90;;;;;;5080704;27;90589;-67
2022/01/29 09:24:46;;;;;;;5.13;1.00;;;19.90;46.90;;;;;;5080985;27;89788;-67
2022/01/29 09:27:14;;;;;;;2.33;1.23;;;19.90;46.90;;;;;;5080594;27;88308;-68
2022/01/29 09:29:43;;;;;;;0.90;0.50;;;19.90;46.90;;;;;;5080992;27;90683;-68
2022/01/29 09:32:11;;;;;;;3.60;1.30;;;19.90;46.90;;;;;;5062385;27;88812;-69
2022/01/29 09:34:39;;;;;;;4.20;0.97;;;19.90;46.90;;;;;;5078268;27;88550;-66
2022/01/29 09:37:07;;;;;;;4.10;0.87;;;19.90;46.90;;;;;;5081237;27;88615;-66
2022/01/29 09:39:35;;;;;;;1.83;0.60;;;19.90;46.90;;;;;;5078330;27;89674;-66
2022/01/29 09:42:06;;;;;;;1.63;1.00;;;19.80;46.80;;;;;;5082995;27;90420;-66
2022/01/29 09:44:34;;;;;;;5.27;1.27;;;19.80;46.80;;;;;;5066842;27;88767;-66
2022/01/29 09:47:03;;;;;;;3.70;0.90;;;19.80;46.70;;;;;;5079703;27;88652;-66
2022/01/29 09:49:32;;;;;;;2.97;1.43;;;19.80;46.70;;;;;;5079616;27;90744;-66
2022/01/29 09:52:00;;;;;;;2.93;0.83;;;19.80;46.80;;;;;;5080507;27;90024;-66
2022/01/29 09:54:28;;;;;;;2.17;1.10;;;19.80;46.80;;;;;;5076224;27;88674;-67
2022/01/29 09:56:56;;;;;;;2.87;0.80;;;19.80;46.80;;;;;;5068950;27;88606;-66
2022/01/29 09:59:25;;;;;;;1.53;0.53;;;19.80;46.80;;;;;;5072046;27;90791;-65
2022/01/29 10:01:53;;;;;;;0.87;0.87;;;19.80;46.70;;;;;;5069025;27;90004;-66
2022/01/29 10:04:23;;;;;;;1.60;0.80;;;19.80;46.80;;;;;;5071133;27;88250;-65
2022/01/29 10:07:15;;;;;;;1.10;1.03;;;20.00;46.90;;;;;;5071484;27;89039;-66
2022/01/29 10:09:43;;;;;;;4.03;0.70;;;19.70;46.70;;;;;;5068373;27;89985;-68
2022/01/29 10:12:23;;;;;;;0.97;0.77;;;19.80;46.80;;;;;;5078895;27;89309;-66
2022/01/29 10:14:53;;;;;;;1.47;0.80;;;19.70;46.70;;;;;;5080601;27;89009;-65
2022/01/29 10:17:41;;;;;;;4.43;0.80;;;19.80;46.80;;;;;;5080071;27;88483;-67
2022/01/29 10:20:14;;;;;;;3.27;0.73;;;19.70;46.70;;;;;;5080080;27;89295;-68
2022/01/29 10:22:42;;;;;;;2.80;0.80;;;19.80;46.80;;;;;;5078983;27;89053;-68
2022/01/29 10:25:12;;;;;;;5.07;0.77;;;19.80;46.70;;;;;;5079564;27;90427;-66
2022/01/29 10:27:40;;;;;;;2.20;1.00;;;19.70;46.70;;;;;;5079893;27;88445;-68
2022/01/29 10:30:12;;;;;;;3.70;0.90;;;19.80;46.80;;;;;;5078811;27;89489;-68
2022/01/29 10:32:40;;;;;;;1.07;0.70;;;19.80;46.70;;;;;;5063004;27;89091;-67
2022/01/29 10:35:12;;;;;;;1.83;0.67;;;19.80;46.70;;;;;;5081326;27;88431;-65
2022/01/29 10:37:41;;;;;;;3.10;1.07;;;19.80;46.70;;;;;;5079361;27;88601;-68
2022/01/29 10:40:16;;;;;;;2.93;0.90;;;19.80;46.70;;;;;;5078749;27;89957;-66
2022/01/29 10:42:44;;;;;;;3.07;0.97;;;19.70;46.60;;;;;;5074143;27;89907;-68
2022/01/29 10:45:13;;;;;;;5.67;0.80;;;19.80;46.70;;;;;;5070401;27;89633;-69
2022/01/29 10:47:54;;;;;;;1.73;0.50;;;19.70;46.60;;;;;;5079567;27;88650;-68
2022/01/29 10:50:22;;;;;;;1.57;1.00;;;19.70;46.70;;;;;;5081920;27;88415;-67
2022/01/29 10:52:50;;;;;;;0.97;0.83;;;19.70;46.70;;;;;;5082882;27;88353;-67
2022/01/29 10:55:18;;;;;;;3.70;0.80;;;19.70;46.70;;;;;;5077950;27;91998;-66
2022/01/29 10:57:47;;;;;;;1.90;0.90;;;19.80;46.80;;;;;;5084613;27;88292;-67
2022/01/29 11:00:20;;;;;;;2.23;1.00;;;19.80;46.90;;;;;;5081355;27;89603;-67
2022/01/29 11:02:49;;;;;;;4.30;1.30;;;19.70;46.90;;;;;;5071596;27;90187;-67
2022/01/29 11:05:17;;;;;;;4.43;1.40;;;19.80;46.90;;;;;;5066809;27;88803;-67
2022/01/29 11:07:50;;;;;;;3.20;0.93;;;19.80;47.00;;;;;;5073835;27;88234;-66
2022/01/29 11:10:18;;;;;;;2.70;1.50;;;19.80;47.00;;;;;;5070000;27;90540;-67
2022/01/29 11:12:49;;;;;;;2.27;1.00;;;19.80;47.10;;;;;;5061151;27;89196;-66
2022/01/29 11:15:19;;;;;;;2.80;1.10;;;19.80;47.10;;;;;;5060513;27;89446;-67
2022/01/29 11:17:48;;;;;;;4.50;1.53;;;19.80;47.30;;;;;;5064871;27;88559;-66
2022/01/29 11:20:16;;;;;;;3.93;1.53;;;19.80;47.40;;;;;;5080019;27;89544;-66
2022/01/29 11:22:45;;;;;;;5.63;1.80;;;19.80;47.40;;;;;;5070230;27;88557;-69
2022/01/29 11:25:16;;;;;;;2.50;1.50;;;19.80;47.50;;;;;;5067511;27;90625;-66
2022/01/29 11:27:44;;;;;;;2.40;1.20;;;19.80;47.50;;;;;;5061462;27;88477;-68
2022/01/29 11:30:12;;;;;;;3.40;1.07;;;19.80;47.60;;;;;;5071644;27;90751;-67
2022/01/29 11:32:42;;;;;;;4.53;1.10;;;19.80;47.60;;;;;;5064347;27;89245;-66
2022/01/29 11:35:12;;;;;;;5.57;1.73;;;19.90;47.60;;;;;;5071122;27;88514;-66
2022/01/29 11:37:43;;;;;;;3.80;1.10;;;19.90;47.70;;;;;;5063856;27;88279;-67
2022/01/29 11:40:15;;;;;;;4.27;1.37;;;19.90;47.80;;;;;;5065738;27;89709;-67
2022/01/29 11:43:09;;;;;;;7.70;1.77;;;19.90;47.80;;;;;;5072139;27;90076;-67
2022/01/29 11:45:53;;;;;;;7.37;1.60;;;19.90;47.80;;;;;;5068780;27;88588;-68
2022/01/29 11:48:51;;;;;;;3.43;1.47;;;19.90;47.80;;;;;;5067450;27;88631;-68
2022/01/29 11:51:45;;;;;;;5.27;1.30;;;19.90;47.90;;;;;;5083478;27;89422;-67
2022/01/29 11:54:26;;;;;;;11.27;1.77;;;19.80;47.80;;;;;;5096774;27;89176;-68
2022/01/29 11:57:07;;;;;;;2.93;1.20;;;19.80;47.80;;;;;;5070229;27;89915;-67
2022/01/29 11:59:35;;;;;;;3.83;1.20;;;19.80;47.90;;;;;;5073200;27;88633;-67
2022/01/29 12:02:26;;;;;;;3.90;1.30;;;19.90;48.00;;;;;;5077419;27;89522;-68
2022/01/29 12:05:16;;;;;;;1.97;0.97;;;19.80;48.00;;;;;;5061020;27;89630;-68
2022/01/29 12:08:21;;;;;;;5.10;1.20;;;19.90;48.10;;;;;;5060664;27;88915;-68
2022/01/29 12:10:56;;;;;;;3.37;1.40;;;19.90;48.10;;;;;;5078126;27;88527;-69
2022/01/29 12:13:24;;;;;;;4.30;1.07;;;19.90;48.10;;;;;;5078803;27;90767;-67
2022/01/29 12:15:58;;;;;;;3.73;1.10;;;19.90;48.10;;;;;;5064213;27;90276;-68
2022/01/29 12:18:32;;;;;;;3.33;1.03;;;19.90;48.20;;;;;;5063889;27;88710;-66
2022/01/29 12:21:02;;;;;;;3.90;1.20;;;19.90;48.10;;;;;;5065296;27;89374;-67
2022/01/29 12:23:30;;;;;;;4.07;1.23;;;19.90;48.20;;;;;;5062336;27;89245;-66
2022/01/29 12:25:59;;;;;;;3.47;1.17;;;19.90;48.10;;;;;;5060489;27;89975;-66
2022/01/29 12:28:27;;;;;;;3.90;0.93;;;19.90;48.10;;;;;;5066400;27;88568;-66
2022/01/29 12:30:58;;;;;;;4.57;0.93;;;19.90;48.10;;;;;;5079539;27;88597;-67
2022/01/29 12:33:26;;;;;;;2.60;1.00;;;19.90;48.10;;;;;;5074548;27;90553;-66
2022/01/29 12:35:55;;;;;;;2.77;1.00;;;20.00;48.20;;;;;;5067444;27;90053;-69
2022/01/29 12:38:29;;;;;;;4.20;1.00;;;20.00;48.10;;;;;;5080895;27;88823;-68
2022/01/29 12:41:00;;;;;;;1.77;1.13;;;20.20;48.20;;;;;;5080169;27;88078;-69
2022/01/29 12:43:31;;;;;;;1.57;1.07;;;20.30;48.00;;;;;;5081336;27;89828;-69
2022/01/29 12:46:12;;;;;;;1.33;0.90;;;20.50;47.90;;;;;;5077022;27;88437;-69
2022/01/29 12:48:41;;;;;;;1.90;1.10;;;20.80;47.80;;;;;;5080994;27;91733;-69
2022/01/29 12:51:11;;;;;;;3.60;1.03;;;21.00;47.60;;;;;;5080972;27;88679;-68
2022/01/29 12:53:40;;;;;;;2.10;1.07;;;21.30;47.50;;;;;;5091081;27;89409;-68
2022/01/29 12:56:09;;;;;;;2.53;1.20;;;21.50;47.40;;;;;;5061011;27;90103;-68
2022/01/29 12:58:39;;;;;;;2.17;1.10;;;21.80;47.30;;;;;;5060155;27;88746;-69
2022/01/29 13:01:08;;;;;;;2.83;0.87;;;22.00;47.10;;;;;;5068250;27;88496;-68
2022/01/29 13:03:38;;;;;;;1.70;0.90;;;22.20;46.90;;;;;;5078925;27;91443;-68
2022/01/29 13:06:07;;;;;;;1.77;0.80;;;22.30;46.70;;;;;;5075540;27;88976;-68
2022/01/29 13:08:35;;;;;;;1.73;0.90;;;22.40;46.60;;;;;;5059886;27;88970;-68
2022/01/29 13:11:20;;;;;;;4.47;1.17;;;22.50;46.50;;;;;;5069900;27;89640;-68
2022/01/29 13:13:53;;;;;;;2.57;0.87;;;22.60;46.50;;;;;;5080505;27;89199;-68